< < Back
Terminal Aerodrome Forecast


Current Version              Previous Versions:   1  2  3  4  5  6  7  8  9  

Terminal Aerodrome Forecast

859
FTUS42 KCAE 222300
TAFAGS
TAF
KAGS 222333Z 2300/2324 35003KT P6SM SKC
     FM231800 31006KT P6SM SKC=



Latest METAR

892
SAUS70 KWBC 230400 RRF
MTRAGS
METAR KAGS 230353Z AUTO 35004KT 10SM CLR 08/05 A3011 RMK AO2 SLP194
T00830050


USA.gov is the U.S. government's official web portal to all federal, state and local government web resources and services.